createdAt,value
2023-01-17T00:01:08.173Z,96840.20
2023-01-17T00:04:13.476Z,96845.52
2023-01-17T00:07:17.210Z,96848.09
2023-01-17T00:10:21.531Z,96853.71
2023-01-17T00:13:23.250Z,96853.48
2023-01-17T00:16:24.831Z,96849.90
2023-01-17T00:19:26.550Z,96843.70
2023-01-17T00:22:29.910Z,96842.86
2023-01-17T00:25:37.675Z,96843.02
2023-01-17T00:28:40.649Z,96841.14
2023-01-17T00:31:42.212Z,96839.68
2023-01-17T00:34:43.891Z,96849.39
2023-01-17T00:37:45.456Z,96866.73
2023-01-17T00:40:48.154Z,96873.15
2023-01-17T00:43:49.847Z,96861.98
2023-01-17T00:46:51.408Z,96860.13
2023-01-17T00:49:53.021Z,96856.40
2023-01-17T00:52:54.569Z,96859.54
2023-01-17T00:55:56.256Z,96863.83
2023-01-17T00:58:57.794Z,96855.23
2023-01-17T01:01:59.532Z,96849.46
2023-01-17T01:05:01.813Z,96852.25
2023-01-17T01:08:04.143Z,96854.34
2023-01-17T01:11:07.609Z,96828.84
2023-01-17T01:14:10.418Z,96840.13
2023-01-17T01:17:12.027Z,96856.22
2023-01-17T01:20:13.688Z,96842.26
2023-01-17T01:23:15.365Z,96846.16
2023-01-17T01:26:17.041Z,96860.36
2023-01-17T01:29:18.956Z,96852.88
2023-01-17T01:32:20.567Z,96844.45
2023-01-17T01:35:23.457Z,96842.15
2023-01-17T01:38:25.606Z,96838.51
2023-01-17T01:41:27.361Z,96835.83
2023-01-17T01:44:58.664Z,96852.41
2023-01-17T01:48:35.823Z,96844.65
2023-01-17T01:51:45.045Z,96833.09
2023-01-17T01:54:50.254Z,96817.76
2023-01-17T01:57:55.181Z,96802.72
2023-01-17T02:00:56.937Z,96801.23
2023-01-17T02:03:58.581Z,96800.61
2023-01-17T02:07:04.617Z,96811.11
2023-01-17T02:10:06.399Z,96817.73
2023-01-17T02:13:08.313Z,96817.03
2023-01-17T02:16:29.751Z,96812.59
2023-01-17T02:19:50.617Z,96811.69
2023-01-17T02:23:20.099Z,96797.20
2023-01-17T02:26:42.630Z,96800.89
2023-01-17T02:30:09.433Z,96811.34
2023-01-17T02:33:17.267Z,96811.55
2023-01-17T02:36:38.227Z,96814.45
2023-01-17T02:39:50.973Z,96819.65
2023-01-17T02:42:58.525Z,96822.85
2023-01-17T02:46:00.427Z,96817.96
2023-01-17T02:49:02.079Z,96818.80
2023-01-17T02:52:34.335Z,96822.40
2023-01-17T02:56:17.702Z,96821.86
2023-01-17T02:59:30.571Z,96823.95
2023-01-17T03:02:42.957Z,96821.11
2023-01-17T03:05:54.684Z,96819.92
2023-01-17T03:08:56.479Z,96820.35
2023-01-17T03:11:58.420Z,96820.30
2023-01-17T03:15:00.219Z,96819.54
2023-01-17T03:18:03.983Z,96818.95
2023-01-17T03:21:05.951Z,96825.50
2023-01-17T03:24:07.781Z,96836.83
2023-01-17T03:27:09.262Z,96844.14
2023-01-17T03:30:11.838Z,96841.65
2023-01-17T03:33:13.697Z,96840.06
2023-01-17T03:36:15.364Z,96842.24
2023-01-17T03:39:16.944Z,96842.91
2023-01-17T03:42:18.688Z,96850.17
2023-01-17T03:45:20.245Z,96856.15
2023-01-17T03:48:21.875Z,96855.69
2023-01-17T03:51:23.591Z,96853.33
2023-01-17T03:54:25.121Z,96863.02
2023-01-17T03:57:26.714Z,96860.04
2023-01-17T04:00:28.262Z,96854.98
2023-01-17T04:03:30.078Z,96849.61
2023-01-17T04:06:31.666Z,96846.50
2023-01-17T04:09:33.240Z,96853.36
2023-01-17T04:12:34.826Z,96859.41
2023-01-17T04:15:36.431Z,96860.63
2023-01-17T04:18:38.110Z,96858.70
2023-01-17T04:21:39.850Z,96855.48
2023-01-17T04:24:41.507Z,96854.11
2023-01-17T04:27:43.071Z,96855.77
2023-01-17T04:30:44.596Z,96858.09
2023-01-17T04:33:46.195Z,96864.39
2023-01-17T04:36:47.866Z,96871.15
2023-01-17T04:39:49.466Z,96871.27
2023-01-17T04:42:51.171Z,96868.34
2023-01-17T04:45:56.920Z,96868.92
2023-01-17T04:48:58.528Z,96871.80
2023-01-17T04:52:00.248Z,96870.32
2023-01-17T04:55:01.960Z,96866.72
2023-01-17T04:58:03.683Z,96865.84
2023-01-17T05:01:07.565Z,96870.14
2023-01-17T05:04:09.530Z,96872.89
2023-01-17T05:07:11.370Z,96872.04
2023-01-17T05:10:12.852Z,96871.21
2023-01-17T05:13:15.180Z,96868.92
2023-01-17T05:16:19.870Z,96864.77
2023-01-17T05:19:22.430Z,96868.89
2023-01-17T05:22:24.251Z,96869.98
2023-01-17T05:25:26.458Z,96875.89
2023-01-17T05:28:28.023Z,96872.98
2023-01-17T05:31:29.637Z,96872.97
2023-01-17T05:34:31.518Z,96871.11
2023-01-17T05:37:32.999Z,96865.45
2023-01-17T05:40:34.831Z,96861.71
2023-01-17T05:43:36.325Z,96861.27
2023-01-17T05:46:38.009Z,96849.86
2023-01-17T05:49:39.624Z,96846.42
2023-01-17T05:52:41.521Z,96844.13
2023-01-17T05:55:43.759Z,96838.94
2023-01-17T05:58:45.332Z,96837.91
2023-01-17T06:01:46.851Z,96851.89
2023-01-17T06:04:48.404Z,96863.46
2023-01-17T06:07:50.250Z,96872.80
2023-01-17T06:10:51.804Z,96882.07
2023-01-17T06:13:53.415Z,96891.80
2023-01-17T06:16:54.948Z,96889.22
2023-01-17T06:19:56.509Z,96884.83
2023-01-17T06:23:00.776Z,96883.83
2023-01-17T06:26:03.662Z,96877.52
2023-01-17T06:29:05.285Z,96872.04
2023-01-17T06:32:06.812Z,96866.38
2023-01-17T06:35:08.717Z,96865.02
2023-01-17T06:38:10.615Z,96868.27
2023-01-17T06:41:12.121Z,96864.98
2023-01-17T06:44:13.705Z,96870.59
2023-01-17T06:47:15.706Z,96874.55
2023-01-17T06:50:17.237Z,96868.69
2023-01-17T06:53:18.876Z,96866.27
2023-01-17T06:56:20.923Z,96855.89
2023-01-17T06:59:22.545Z,96854.48
2023-01-17T07:02:24.224Z,96850.50
2023-01-17T07:05:25.914Z,96851.65
2023-01-17T07:08:27.698Z,96854.14
2023-01-17T07:11:29.264Z,96855.36
2023-01-17T07:14:31.318Z,96848.82
2023-01-17T07:17:34.595Z,96848.54
2023-01-17T07:20:36.454Z,96850.29
2023-01-17T07:23:38.178Z,96847.15
2023-01-17T07:26:39.995Z,96844.69
2023-01-17T07:29:41.615Z,96847.15
2023-01-17T07:32:43.190Z,96850.90
2023-01-17T07:35:45.068Z,96854.81
2023-01-17T07:38:46.779Z,96858.89
2023-01-17T07:41:48.395Z,96862.46
2023-01-17T07:44:50.113Z,96868.39
2023-01-17T07:47:51.704Z,96872.91
2023-01-17T07:50:54.142Z,96876.98
2023-01-17T07:53:55.799Z,96883.40
2023-01-17T07:56:57.390Z,96884.57
2023-01-17T07:59:59.204Z,96886.29
2023-01-17T08:03:01.221Z,96886.61
2023-01-17T08:06:03.044Z,96889.50
2023-01-17T08:09:04.832Z,96894.31
2023-01-17T08:12:06.529Z,96899.13
2023-01-17T08:15:09.184Z,96905.45
2023-01-17T08:18:11.019Z,96909.77
2023-01-17T08:21:14.268Z,96909.44
2023-01-17T08:24:15.936Z,96910.92
2023-01-17T08:27:17.494Z,96913.19
2023-01-17T08:30:19.252Z,96912.20
2023-01-17T08:33:20.806Z,96915.22
2023-01-17T08:36:22.352Z,96918.63
2023-01-17T08:39:24.114Z,96924.52
2023-01-17T08:42:25.599Z,96925.85
2023-01-17T08:45:27.941Z,96934.16
2023-01-17T08:48:29.704Z,96929.41
2023-01-17T08:51:31.386Z,96933.70
2023-01-17T08:54:33.379Z,96936.63
2023-01-17T08:57:34.876Z,96939.72
2023-01-17T09:00:36.404Z,96948.05
2023-01-17T09:03:40.762Z,96954.38
2023-01-17T09:06:44.397Z,96961.73
2023-01-17T09:09:46.352Z,96966.54
2023-01-17T09:12:48.084Z,96967.52
2023-01-17T09:15:49.756Z,96972.95
2023-01-17T09:18:55.922Z,96979.14
2023-01-17T09:21:57.598Z,96984.01
2023-01-17T09:24:59.043Z,96983.48
2023-01-17T09:28:00.657Z,96984.94
2023-01-17T09:31:07.133Z,96987.20
2023-01-17T09:34:08.754Z,96985.83
2023-01-17T09:37:10.329Z,96984.88
2023-01-17T09:40:15.309Z,96983.98
2023-01-17T09:43:41.032Z,96984.95
2023-01-17T09:46:45.362Z,96986.18
2023-01-17T09:49:47.339Z,96986.65
2023-01-17T09:52:49.106Z,96984.51
2023-01-17T09:55:53.450Z,96983.94
2023-01-17T09:59:33.188Z,96977.70
2023-01-17T10:02:37.128Z,96970.23
2023-01-17T10:06:03.166Z,96965.23
2023-01-17T10:09:33.253Z,96968.42
2023-01-17T10:12:53.380Z,96971.22
2023-01-17T10:16:17.843Z,96973.42
2023-01-17T10:19:31.347Z,96975.69
2023-01-17T10:22:42.053Z,96979.77
2023-01-17T10:25:49.044Z,96983.52
2023-01-17T10:28:52.804Z,96985.38
2023-01-17T10:31:59.399Z,96988.27
2023-01-17T10:35:06.341Z,96985.18
2023-01-17T10:38:11.987Z,96987.02
2023-01-17T10:41:22.452Z,96986.93
2023-01-17T10:44:33.616Z,96982.82
2023-01-17T10:47:37.431Z,96980.48
2023-01-17T10:50:57.458Z,96983.85
2023-01-17T10:54:08.447Z,96990.24
2023-01-17T10:57:15.460Z,96996.85
2023-01-17T11:00:25.832Z,97004.70
2023-01-17T11:03:28.377Z,97002.59
2023-01-17T11:06:30.122Z,97000.36
2023-01-17T11:09:48.911Z,97001.82
2023-01-17T11:12:50.513Z,97002.72
2023-01-17T11:15:56.068Z,97006.85
2023-01-17T11:19:17.876Z,97004.71
2023-01-17T11:22:19.831Z,96999.48
2023-01-17T11:25:22.119Z,96999.08
2023-01-17T11:28:26.799Z,97003.91
2023-01-17T11:31:28.441Z,97000.66
2023-01-17T11:34:30.019Z,97004.11
2023-01-17T11:37:31.885Z,97004.04
2023-01-17T11:40:40.604Z,96997.94
2023-01-17T11:43:57.627Z,96997.04
2023-01-17T11:47:11.578Z,96997.08
2023-01-17T11:50:24.802Z,96999.77
2023-01-17T11:53:35.072Z,96996.27
2023-01-17T11:56:37.097Z,96988.97
2023-01-17T11:59:42.628Z,96994.80
2023-01-17T12:03:14.848Z,96991.48
2023-01-17T12:06:25.948Z,96994.77
2023-01-17T12:09:32.728Z,96995.88
2023-01-17T12:12:53.249Z,96991.03
2023-01-17T12:16:30.813Z,96983.92
2023-01-17T12:20:01.772Z,96981.97
2023-01-17T12:23:14.376Z,96983.50
2023-01-17T12:26:26.923Z,96977.52
2023-01-17T12:29:55.481Z,96974.71
2023-01-17T12:33:09.176Z,96981.36
2023-01-17T12:36:28.191Z,96985.04
2023-01-17T12:39:42.111Z,96982.62
2023-01-17T12:42:54.408Z,96978.21
2023-01-17T12:45:56.513Z,96981.90
2023-01-17T12:49:03.097Z,96984.29
2023-01-17T12:52:21.804Z,96980.52
2023-01-17T12:56:02.438Z,96992.02
2023-01-17T12:59:22.908Z,96992.95
2023-01-17T13:02:54.897Z,96992.00
2023-01-17T13:05:57.615Z,96998.48
2023-01-17T13:09:01.151Z,96994.39
2023-01-17T13:12:19.609Z,97000.00
2023-01-17T13:15:27.362Z,96999.86
2023-01-17T13:18:29.385Z,97000.70
2023-01-17T13:21:34.713Z,97006.98
2023-01-17T13:24:44.869Z,97014.62
2023-01-17T13:28:15.988Z,97018.52
2023-01-17T13:31:33.917Z,97026.30
2023-01-17T13:35:10.088Z,97032.21
2023-01-17T13:38:34.648Z,97032.79
2023-01-17T13:41:51.390Z,97038.04
2023-01-17T13:44:53.313Z,97044.30
2023-01-17T13:48:19.594Z,97047.30
2023-01-17T13:52:01.656Z,97051.41
2023-01-17T13:55:04.364Z,97054.06
2023-01-17T13:58:28.867Z,97051.04
2023-01-17T14:01:33.725Z,97048.71
2023-01-17T14:05:07.055Z,97058.09
2023-01-17T14:08:15.784Z,97074.42
2023-01-17T14:11:17.378Z,97085.41
2023-01-17T14:14:45.583Z,97085.55
2023-01-17T14:17:51.284Z,97088.38
2023-01-17T14:21:06.992Z,97084.84
2023-01-17T14:24:11.575Z,97084.52
2023-01-17T14:27:22.036Z,97088.39
2023-01-17T14:30:28.491Z,97086.62
2023-01-17T14:33:34.997Z,97091.08
2023-01-17T14:36:36.677Z,97089.48
2023-01-17T14:39:46.669Z,97096.85
2023-01-17T14:42:56.562Z,97103.27
2023-01-17T14:46:02.004Z,97111.95
2023-01-17T14:49:22.993Z,97120.83
2023-01-17T14:52:24.640Z,97130.41
2023-01-17T14:55:26.173Z,97131.77
2023-01-17T14:58:29.313Z,97135.50
2023-01-17T15:01:31.344Z,97145.85
2023-01-17T15:04:32.996Z,97145.05
2023-01-17T15:07:36.198Z,97148.37
2023-01-17T15:10:49.296Z,97149.77
2023-01-17T15:13:53.506Z,97153.31
2023-01-17T15:16:55.281Z,97154.72
2023-01-17T15:19:59.664Z,97155.08
2023-01-17T15:23:04.238Z,97153.45
2023-01-17T15:26:06.570Z,97158.38
2023-01-17T15:29:13.451Z,97160.00
2023-01-17T15:32:25.723Z,97162.09
2023-01-17T15:35:27.367Z,97160.83
2023-01-17T15:38:33.582Z,97164.61
2023-01-17T15:41:40.029Z,97165.45
2023-01-17T15:44:48.512Z,97167.83
2023-01-17T15:47:56.933Z,97160.58
2023-01-17T15:50:58.635Z,97166.37
2023-01-17T15:54:00.437Z,97169.66
2023-01-17T15:57:15.804Z,97174.02
2023-01-17T16:00:29.455Z,97172.63
2023-01-17T16:03:31.242Z,97167.02
2023-01-17T16:06:38.368Z,97158.75
2023-01-17T16:09:42.460Z,97156.73
2023-01-17T16:12:48.487Z,97152.55
2023-01-17T16:15:51.265Z,97144.29
2023-01-17T16:18:58.509Z,97136.45
2023-01-17T16:22:00.401Z,97132.79
2023-01-17T16:25:02.085Z,97135.36
2023-01-17T16:28:04.442Z,97133.63
2023-01-17T16:31:06.229Z,97131.05
2023-01-17T16:34:10.808Z,97127.36
2023-01-17T16:37:12.545Z,97123.20
2023-01-17T16:40:14.155Z,97114.63
2023-01-17T16:43:17.643Z,97123.19
2023-01-17T16:46:20.711Z,97126.00
2023-01-17T16:49:22.362Z,97118.54
2023-01-17T16:52:24.091Z,97107.55
2023-01-17T16:55:25.878Z,97098.30
2023-01-17T16:58:27.345Z,97089.30
2023-01-17T17:01:29.059Z,97093.64
2023-01-17T17:04:30.809Z,97097.42
2023-01-17T17:07:32.452Z,97096.39
2023-01-17T17:10:33.978Z,97096.56
2023-01-17T17:13:36.390Z,97094.44
2023-01-17T17:16:38.628Z,97099.66
2023-01-17T17:19:40.445Z,97115.48
2023-01-17T17:22:42.113Z,97113.71
2023-01-17T17:25:43.690Z,97106.44
2023-01-17T17:28:45.215Z,97103.43
2023-01-17T17:31:46.783Z,97103.50
2023-01-17T17:34:48.470Z,97092.46
2023-01-17T17:37:50.235Z,97083.17
2023-01-17T17:40:52.005Z,97091.36
2023-01-17T17:43:54.598Z,97106.65
2023-01-17T17:46:56.196Z,97098.21
2023-01-17T17:49:57.863Z,97097.38
2023-01-17T17:52:59.455Z,97091.48
2023-01-17T17:56:05.711Z,97083.23
2023-01-17T17:59:08.765Z,97081.89
2023-01-17T18:02:10.898Z,97085.04
2023-01-17T18:05:12.564Z,97088.40
2023-01-17T18:08:14.158Z,97091.77
2023-01-17T18:11:19.706Z,97093.61
2023-01-17T18:14:21.336Z,97084.30
2023-01-17T18:17:22.915Z,97090.99
2023-01-17T18:20:24.600Z,97098.38
2023-01-17T18:23:26.273Z,97108.29
2023-01-17T18:26:29.894Z,97111.43
2023-01-17T18:29:31.958Z,97108.69
2023-01-17T18:32:33.614Z,97110.05
2023-01-17T18:35:35.239Z,97123.18
2023-01-17T18:38:41.333Z,97128.40
2023-01-17T18:41:43.163Z,97127.53
2023-01-17T18:44:44.692Z,97123.48
2023-01-17T18:47:46.268Z,97126.45
2023-01-17T18:50:56.067Z,97131.55
2023-01-17T18:53:57.835Z,97131.66
2023-01-17T18:56:59.547Z,97131.46
2023-01-17T19:00:01.282Z,97138.79
2023-01-17T19:03:02.923Z,97140.10
2023-01-17T19:06:05.700Z,97129.40
2023-01-17T19:09:08.475Z,97121.47
2023-01-17T19:12:10.172Z,97122.83
2023-01-17T19:15:11.888Z,97115.60
2023-01-17T19:18:13.632Z,97108.98
2023-01-17T19:21:17.919Z,97100.31
2023-01-17T19:24:19.469Z,97092.35
2023-01-17T19:27:21.589Z,97093.35
2023-01-17T19:30:23.468Z,97098.56
2023-01-17T19:33:25.089Z,97102.05
2023-01-17T19:36:34.500Z,97104.64
2023-01-17T19:39:36.075Z,97108.15
2023-01-17T19:42:37.690Z,97107.17
2023-01-17T19:45:39.329Z,97118.23
2023-01-17T19:48:40.976Z,97121.61
2023-01-17T19:51:42.694Z,97114.08
2023-01-17T19:54:44.496Z,97111.63
2023-01-17T19:57:46.367Z,97109.44
2023-01-17T20:00:48.097Z,97107.00
2023-01-17T20:03:51.817Z,97105.85
2023-01-17T20:06:53.637Z,97099.05
2023-01-17T20:09:55.424Z,97094.97
2023-01-17T20:12:56.891Z,97092.42
2023-01-17T20:16:03.564Z,97084.00
2023-01-17T20:19:05.399Z,97077.70
2023-01-17T20:22:07.382Z,97067.48
2023-01-17T20:25:11.499Z,97071.59
2023-01-17T20:28:13.975Z,97066.44
2023-01-17T20:31:18.880Z,97058.86
2023-01-17T20:34:21.318Z,97061.27
2023-01-17T20:37:22.992Z,97059.33
2023-01-17T20:40:24.541Z,97058.56
2023-01-17T20:43:26.046Z,97057.56
2023-01-17T20:46:32.708Z,97056.98
2023-01-17T20:49:34.404Z,97056.02
2023-01-17T20:52:36.066Z,97053.08
2023-01-17T20:55:37.640Z,97051.84
2023-01-17T20:58:39.602Z,97054.98
2023-01-17T21:01:41.806Z,97052.01
2023-01-17T21:04:43.417Z,97046.48
2023-01-17T21:08:05.004Z,97046.88
2023-01-17T21:11:07.085Z,97040.52
2023-01-17T21:14:08.649Z,97037.23
2023-01-17T21:17:10.531Z,97033.48
2023-01-17T21:20:12.546Z,97036.47
2023-01-17T21:23:14.643Z,97032.88
2023-01-17T21:26:17.678Z,97026.37
2023-01-17T21:29:21.597Z,97015.27
2023-01-17T21:32:23.648Z,97011.81
2023-01-17T21:35:43.569Z,97018.55
2023-01-17T21:38:53.112Z,97015.23
2023-01-17T21:41:54.868Z,97019.06
2023-01-17T21:44:56.444Z,97014.10
2023-01-17T21:47:59.152Z,97010.39
2023-01-17T21:51:05.625Z,97005.80
2023-01-17T21:54:08.431Z,97003.77
2023-01-17T21:57:11.447Z,97000.38
2023-01-17T22:00:14.095Z,96996.25
2023-01-17T22:03:15.685Z,96991.21
2023-01-17T22:06:18.765Z,96990.42
2023-01-17T22:09:20.415Z,96994.45
2023-01-17T22:12:22.058Z,96994.35
2023-01-17T22:15:23.815Z,96988.11
2023-01-17T22:18:25.418Z,96987.75
2023-01-17T22:21:28.428Z,96979.04
2023-01-17T22:24:29.985Z,96982.06
2023-01-17T22:27:31.711Z,96969.05
2023-01-17T22:30:33.136Z,96958.54
2023-01-17T22:33:35.872Z,96955.23
2023-01-17T22:36:37.636Z,96952.00
2023-01-17T22:39:39.232Z,96947.87
2023-01-17T22:42:41.033Z,96946.55
2023-01-17T22:45:42.618Z,96951.37
2023-01-17T22:48:44.913Z,96953.58
2023-01-17T22:51:46.806Z,96947.27
2023-01-17T22:54:48.547Z,96943.94
2023-01-17T22:57:49.981Z,96947.23
2023-01-17T23:00:51.534Z,96944.59
2023-01-17T23:03:56.049Z,96942.63
2023-01-17T23:06:57.637Z,96934.50
2023-01-17T23:09:59.620Z,96932.95
2023-01-17T23:13:01.331Z,96927.92
2023-01-17T23:16:05.832Z,96918.29
2023-01-17T23:19:08.255Z,96912.10
2023-01-17T23:22:12.891Z,96907.66
2023-01-17T23:25:14.734Z,96899.94
2023-01-17T23:28:16.418Z,96896.20
2023-01-17T23:31:18.056Z,96886.33
2023-01-17T23:34:19.865Z,96879.71
2023-01-17T23:37:21.915Z,96873.95
2023-01-17T23:40:23.569Z,96862.27
2023-01-17T23:43:25.238Z,96850.39
2023-01-17T23:46:27.246Z,96838.21
2023-01-17T23:49:28.869Z,96835.40
2023-01-17T23:52:30.514Z,96832.42
2023-01-17T23:55:32.836Z,96833.23
2023-01-17T23:58:34.595Z,96834.39
